DABB/AAE METAR and TAF weather

Enter ICAO airport designator
Station Type Date Time Source
DABB METAR 2018/12/11 00:00 UTC NOAA

DABB 110000Z 26004KT 9999 FEW020 SCT030 13/11 Q1024


Station Type Date Time Source
DABB Decoded METAR 2018/12/11 00:00 UTC NOAA

Annaba, Algeria (DABB) 36-50N 007-49E 4M
Dec 10, 2018 - 07:00 PM EST / 2018.12.11 0000 UTC
Wind: from the W (260 degrees) at 5 MPH (4 KT):0
Visibility: greater than 7 mile(s):0
Sky conditions: partly cloudy
Temperature: 55 F (13 C)
Dew Point: 51 F (11 C)
Relative Humidity: 87%
Pressure (altimeter): 30.24 in. Hg (1024 hPa)
ob: DABB 110000Z 26004KT 9999 FEW020 SCT030 13/11 Q1024
cycle: 0

Station Type Date Time Source
DABB TAF 2018/12/10 18:33 UTC NOAA

TAF DABB 101700Z 1018/1118 31015KT 9999 FEW026 BKN030
TEMPO 1018/1024 32016G30KT FEW020TCU PROB30
TEMPO 1019/1022 5000 -RA
BECMG 1021/1024 24009KT PROB40
TEMPO 1100/1108 2000 -RA BR BKN008
BECMG 1109/1112 30012KT


Example: see airport list